Time;durP1;ratioP1;P1;durP2;ratioP2;P2;SDS_P1;SDS_P2;PMS_P1;PMS_P2;Temp;Humidity;BMP_temperature;BMP_pressure;BME280_temperature;BME280_humidity;BME280_pressure;Samples;Min_cycle;Max_cycle;Signal;HPM_P1;HPM_P2
2022/10/13 02:18:50;;;;;;;40.05;14.95;;;;;;;;;;6122599;23;20196;-89
2022/10/13 02:21:57;;;;;;;32.75;15.05;;;;;;;;;;6176942;23;20176;-89
2022/10/13 02:25:02;;;;;;;28.90;14.27;;;;;;;;;;6175110;23;20238;-88
2022/10/13 02:28:07;;;;;;;31.42;15.23;;;;;;;;;;6194744;23;20176;-88
2022/10/13 02:31:20;;;;;;;36.47;15.07;;;;;;;;;;6176659;23;20291;-90
2022/10/13 02:34:27;;;;;;;47.83;14.18;;;;;;;;;;6176214;23;20168;-90
2022/10/13 02:37:32;;;;;;;72.30;16.13;;;;;;;;;;6175704;23;20215;-89
2022/10/13 02:40:37;;;;;;;34.90;15.23;;;;;;;;;;6174372;23;20620;-89
2022/10/13 02:43:42;;;;;;;41.35;15.15;;;;;;;;;;6176175;23;20192;-89
2022/10/13 02:46:47;;;;;;;28.75;14.30;;;;;;;;;;6175430;23;20344;-91
2022/10/13 02:49:54;;;;;;;29.17;15.15;;;;;;;;;;6174863;23;20172;-90
2022/10/13 02:52:58;;;;;;;66.95;17.15;;;;;;;;;;6175642;23;20171;-89
2022/10/13 02:56:04;;;;;;;31.85;16.08;;;;;;;;;;6175934;23;20168;-90
2022/10/13 02:59:09;;;;;;;30.65;15.40;;;;;;;;;;6176304;23;20167;-90
2022/10/13 03:02:14;;;;;;;31.55;15.23;;;;;;;;;;6175734;23;20624;-89
2022/10/13 03:05:21;;;;;;;30.10;15.07;;;;;;;;;;6176868;23;20191;-90
2022/10/13 03:08:25;;;;;;;31.13;15.20;;;;;;;;;;6176185;23;20187;-90
2022/10/13 03:11:31;;;;;;;29.17;14.57;;;;;;;;;;6176906;23;20167;-89
2022/10/13 03:14:35;;;;;;;32.20;14.88;;;;;;;;;;6174313;23;20175;-90
2022/10/13 03:17:40;;;;;;;34.75;15.43;;;;;;;;;;6176798;23;20203;-89
2022/10/13 03:20:55;;;;;;;31.77;14.93;;;;;;;;;;6174485;23;20219;-90
2022/10/13 03:24:04;;;;;;;35.75;15.13;;;;;;;;;;6174591;23;20187;-89
2022/10/13 03:27:10;;;;;;;31.73;14.05;;;;;;;;;;6175766;23;20206;-89
2022/10/13 03:30:14;;;;;;;27.63;13.30;;;;;;;;;;6175788;23;20176;-90
2022/10/13 03:33:19;;;;;;;25.35;12.70;;;;;;;;;;6174974;23;20183;-89
2022/10/13 03:36:25;;;;;;;25.30;12.68;;;;;;;;;;6175507;23;20171;-89
2022/10/13 03:39:31;;;;;;;27.33;13.30;;;;;;;;;;6175019;23;20247;-89
2022/10/13 03:42:36;;;;;;;24.02;12.30;;;;;;;;;;6175289;23;20179;-89
2022/10/13 03:45:41;;;;;;;25.98;13.32;;;;;;;;;;6175827;23;20216;-90
2022/10/13 03:48:47;;;;;;;28.88;13.32;;;;;;;;;;6175318;23;20171;-90
2022/10/13 03:51:52;;;;;;;25.80;12.48;;;;;;;;;;6175440;23;20171;-89
2022/10/13 03:54:57;;;;;;;27.25;12.25;;;;;;;;;;6175759;23;20267;-90
2022/10/13 03:58:02;;;;;;;24.83;12.45;;;;;;;;;;6174888;23;20298;-89
2022/10/13 04:01:34;;;;;;;28.75;13.30;;;;;;;;;;6174716;23;20164;-89
2022/10/13 04:04:39;;;;;;;26.90;13.23;;;;;;;;;;6175392;23;20246;-89
2022/10/13 04:07:45;;;;;;;23.17;12.88;;;;;;;;;;6175858;23;20164;-89
2022/10/13 04:11:00;;;;;;;31.10;13.77;;;;;;;;;;6177191;23;20148;-89
2022/10/13 04:14:05;;;;;;;26.92;13.23;;;;;;;;;;6177350;23;20199;-90
2022/10/13 04:17:10;;;;;;;32.20;14.07;;;;;;;;;;6175713;23;20219;-90
2022/10/13 04:20:15;;;;;;;25.38;14.02;;;;;;;;;;6177902;23;20529;-89
2022/10/13 04:23:21;;;;;;;28.30;13.70;;;;;;;;;;6176945;23;20239;-91
2022/10/13 04:26:29;;;;;;;25.70;13.35;;;;;;;;;;6177819;23;20192;-90
2022/10/13 04:29:36;;;;;;;32.65;13.50;;;;;;;;;;6178022;23;20299;-90
2022/10/13 04:32:43;;;;;;;32.63;13.80;;;;;;;;;;6176940;23;20172;-90
2022/10/13 04:35:49;;;;;;;28.50;14.02;;;;;;;;;;6179793;23;20240;-91
2022/10/13 04:38:56;;;;;;;27.50;13.80;;;;;;;;;;6185284;23;20175;-90
2022/10/13 04:42:02;;;;;;;34.63;14.63;;;;;;;;;;6185530;23;20195;-90
2022/10/13 04:45:09;;;;;;;33.40;14.98;;;;;;;;;;6185698;23;20270;-90
2022/10/13 04:48:14;;;;;;;28.88;14.15;;;;;;;;;;6180287;23;20287;-91
2022/10/13 04:51:20;;;;;;;28.48;13.43;;;;;;;;;;6177547;23;20254;-89
2022/10/13 04:54:27;;;;;;;24.45;12.93;;;;;;;;;;6178348;23;20239;-89
2022/10/13 04:57:31;;;;;;;27.42;13.40;;;;;;;;;;6177165;23;20256;-90
2022/10/13 05:00:36;;;;;;;30.70;12.68;;;;;;;;;;6177299;23;20175;-89
2022/10/13 05:03:41;;;;;;;26.70;12.45;;;;;;;;;;6176486;23;20631;-89
2022/10/13 05:06:46;;;;;;;21.30;11.98;;;;;;;;;;6177314;23;20183;-88
2022/10/13 05:09:53;;;;;;;26.10;12.05;;;;;;;;;;6177954;23;20169;-89
2022/10/13 05:12:58;;;;;;;24.50;12.30;;;;;;;;;;6178935;23;20224;-89
2022/10/13 05:16:07;;;;;;;22.50;11.57;;;;;;;;;;6179273;23;20574;-88
2022/10/13 05:19:12;;;;;;;22.17;12.40;;;;;;;;;;6180824;23;20239;-89
2022/10/13 05:22:17;;;;;;;22.90;11.63;;;;;;;;;;6182508;23;20219;-89
2022/10/13 05:25:23;;;;;;;23.15;11.85;;;;;;;;;;6181593;23;20199;-89
2022/10/13 05:28:28;;;;;;;20.88;11.27;;;;;;;;;;6181649;23;20284;-91
2022/10/13 05:31:39;;;;;;;20.13;11.30;;;;;;;;;;6180945;23;20172;-90
2022/10/13 05:34:44;;;;;;;25.70;11.82;;;;;;;;;;6182068;23;20251;-90
2022/10/13 06:59:59;;;;;;;23.65;10.70;;;;;;;;;;6116691;23;20333;-88
2022/10/13 07:03:04;;;;;;;21.27;10.57;;;;;;;;;;6148513;23;20605;-89
2022/10/13 07:06:09;;;;;;;21.83;10.82;;;;;;;;;;6152616;23;20287;-90
2022/10/13 07:09:14;;;;;;;23.77;9.70;;;;;;;;;;6151790;23;20234;-88
2022/10/13 07:12:20;;;;;;;21.35;10.13;;;;;;;;;;6150085;23;20314;-90
2022/10/13 07:15:28;;;;;;;20.67;10.38;;;;;;;;;;6150617;23;20172;-90
2022/10/13 07:18:34;;;;;;;22.00;10.32;;;;;;;;;;6148417;23;20167;-90
2022/10/13 07:21:39;;;;;;;24.00;10.55;;;;;;;;;;6152056;23;20156;-90
2022/10/13 07:25:19;;;;;;;21.90;10.10;;;;;;;;;;6149312;23;20616;-91
2022/10/13 07:28:25;;;;;;;18.77;10.23;;;;;;;;;;6151868;23;20177;-90
2022/10/13 07:31:32;;;;;;;21.58;11.32;;;;;;;;;;6150962;23;20227;-90
2022/10/13 07:34:37;;;;;;;20.92;10.52;;;;;;;;;;6151967;23;20160;-89
2022/10/13 07:37:42;;;;;;;25.05;10.25;;;;;;;;;;6151477;23;20303;-90
2022/10/13 07:40:47;;;;;;;23.02;10.32;;;;;;;;;;6153208;23;20216;-88
2022/10/13 07:43:55;;;;;;;27.77;10.32;;;;;;;;;;6153621;23;20168;-90
2022/10/13 07:47:01;;;;;;;20.98;10.38;;;;;;;;;;6152049;23;20200;-89
2022/10/13 07:50:07;;;;;;;18.73;9.93;;;;;;;;;;6150148;23;20212;-90
2022/10/13 07:53:12;;;;;;;25.23;12.38;;;;;;;;;;6151011;23;20220;-90
2022/10/13 07:56:17;;;;;;;21.50;10.05;;;;;;;;;;6151515;23;20176;-89
2022/10/13 07:59:23;;;;;;;20.88;9.80;;;;;;;;;;6152202;23;20169;-90
2022/10/13 08:02:33;;;;;;;20.13;10.13;;;;;;;;;;6150748;23;20168;-89
2022/10/13 08:05:39;;;;;;;23.15;10.65;;;;;;;;;;6150556;23;20188;-89
2022/10/13 08:08:44;;;;;;;26.27;10.80;;;;;;;;;;6151199;23;20201;-88
2022/10/13 08:11:54;;;;;;;21.67;10.93;;;;;;;;;;6151211;23;20172;-89
2022/10/13 08:14:59;;;;;;;27.13;10.40;;;;;;;;;;6151374;23;20167;-89
2022/10/13 08:18:06;;;;;;;24.05;10.13;;;;;;;;;;6151688;23;20171;-90
2022/10/13 08:21:13;;;;;;;19.88;11.07;;;;;;;;;;6150625;23;20161;-89
2022/10/13 08:24:21;;;;;;;25.60;10.32;;;;;;;;;;6150270;23;20155;-91
2022/10/13 08:27:27;;;;;;;18.95;10.23;;;;;;;;;;6152206;23;20231;-90
2022/10/13 08:30:32;;;;;;;19.05;10.55;;;;;;;;;;6152599;23;20601;-90
2022/10/13 08:33:38;;;;;;;22.65;10.32;;;;;;;;;;6150929;23;20172;-89
2022/10/13 08:36:44;;;;;;;22.98;11.48;;;;;;;;;;6152955;23;20677;-89
2022/10/13 08:39:49;;;;;;;35.40;14.02;;;;;;;;;;6151270;23;20228;-88
2022/10/13 08:42:58;;;;;;;18.52;10.13;;;;;;;;;;6151547;23;20215;-89
2022/10/13 08:46:03;;;;;;;20.58;10.82;;;;;;;;;;6151227;23;20200;-90
2022/10/13 08:49:15;;;;;;;21.38;10.95;;;;;;;;;;6152713;23;20165;-90
2022/10/13 08:52:22;;;;;;;19.10;10.15;;;;;;;;;;6154377;23;20220;-89
2022/10/13 08:55:30;;;;;;;25.15;10.55;;;;;;;;;;6171971;23;20256;-90
2022/10/13 08:58:37;;;;;;;19.88;10.25;;;;;;;;;;6154758;23;20172;-90
2022/10/13 09:01:47;;;;;;;26.17;10.85;;;;;;;;;;6153081;23;20616;-89
2022/10/13 09:04:54;;;;;;;23.02;11.80;;;;;;;;;;6154816;23;20168;-89
2022/10/13 09:08:00;;;;;;;25.20;12.30;;;;;;;;;;6153170;23;20169;-88
2022/10/13 09:11:05;;;;;;;27.48;11.27;;;;;;;;;;6153337;23;20161;-89
2022/10/13 09:14:11;;;;;;;23.85;11.02;;;;;;;;;;6170484;23;20624;-88
2022/10/13 09:17:18;;;;;;;32.25;12.25;;;;;;;;;;6153253;23;20218;-89
2022/10/13 09:20:28;;;;;;;27.77;13.90;;;;;;;;;;6151971;23;20240;-90
2022/10/13 09:23:33;;;;;;;25.83;11.35;;;;;;;;;;6153627;23;20185;-90
2022/10/13 09:26:40;;;;;;;28.88;12.30;;;;;;;;;;6150918;23;20300;-88
2022/10/13 09:29:45;;;;;;;24.95;12.00;;;;;;;;;;6151484;23;20210;-88
2022/10/13 09:32:51;;;;;;;19.00;10.52;;;;;;;;;;6153180;23;20378;-88
2022/10/13 09:36:13;;;;;;;27.60;11.82;;;;;;;;;;6154411;23;20177;-89
2022/10/13 09:39:18;;;;;;;23.08;10.68;;;;;;;;;;6153626;23;20165;-90
2022/10/13 09:42:26;;;;;;;20.90;11.40;;;;;;;;;;6151531;23;20588;-90
2022/10/13 09:45:33;;;;;;;25.75;11.27;;;;;;;;;;6151598;23;20193;-89
2022/10/13 09:48:41;;;;;;;26.10;11.48;;;;;;;;;;6151732;23;20624;-90
2022/10/13 09:51:49;;;;;;;29.60;12.05;;;;;;;;;;6153430;23;20173;-90
2022/10/13 09:54:59;;;;;;;25.42;11.07;;;;;;;;;;6151859;23;20284;-89
2022/10/13 09:58:06;;;;;;;24.17;11.63;;;;;;;;;;6151175;23;20173;-90
2022/10/13 10:01:18;;;;;;;24.10;11.65;;;;;;;;;;6152503;23;20196;-90
2022/10/13 10:04:24;;;;;;;20.95;11.18;;;;;;;;;;6152185;23;20244;-90
2022/10/13 10:07:34;;;;;;;25.50;11.98;;;;;;;;;;6153965;23;20200;-90
2022/10/13 10:10:41;;;;;;;23.70;10.98;;;;;;;;;;6155086;23;20177;-91
2022/10/13 10:13:47;;;;;;;22.58;12.13;;;;;;;;;;6151327;23;20168;-90
2022/10/13 10:16:57;;;;;;;23.27;11.93;;;;;;;;;;6153429;23;20216;-89
2022/10/13 10:20:07;;;;;;;27.63;12.65;;;;;;;;;;6152707;23;20192;-90
2022/10/13 10:23:17;;;;;;;22.58;12.40;;;;;;;;;;6152159;23;20228;-89
2022/10/13 10:26:24;;;;;;;28.98;13.02;;;;;;;;;;6153476;23;20266;-90
2022/10/13 10:29:36;;;;;;;24.42;12.60;;;;;;;;;;6153567;23;20168;-90
2022/10/13 10:32:44;;;;;;;24.42;12.63;;;;;;;;;;6171383;23;20181;-90
2022/10/13 10:35:53;;;;;;;24.50;12.82;;;;;;;;;;6153269;23;20168;-88
2022/10/13 10:39:03;;;;;;;21.98;12.20;;;;;;;;;;6151053;23;20168;-88
2022/10/13 10:42:15;;;;;;;24.20;12.50;;;;;;;;;;6151505;23;20168;-90
2022/10/13 10:45:23;;;;;;;31.73;11.57;;;;;;;;;;6149825;23;20165;-89
2022/10/13 10:48:31;;;;;;;26.67;11.65;;;;;;;;;;6152334;23;20168;-91
2022/10/13 10:51:38;;;;;;;28.65;12.13;;;;;;;;;;6151282;23;20169;-91
2022/10/13 10:54:47;;;;;;;27.35;12.02;;;;;;;;;;6150244;23;20238;-89
2022/10/13 10:57:57;;;;;;;23.45;12.02;;;;;;;;;;6149917;23;20199;-89
2022/10/13 11:01:06;;;;;;;24.50;13.20;;;;;;;;;;6149925;23;20191;-88
2022/10/13 11:04:35;;;;;;;28.00;11.38;;;;;;;;;;6149856;23;20229;-88
2022/10/13 11:07:57;;;;;;;23.65;10.90;;;;;;;;;;6150406;23;20225;-91
2022/10/13 11:11:21;;;;;;;20.50;10.13;;;;;;;;;;6148738;23;20216;-88
2022/10/13 11:14:33;;;;;;;24.20;10.63;;;;;;;;;;6149387;23;20175;-89
2022/10/13 11:17:38;;;;;;;20.17;8.13;;;;;;;;;;6149278;23;20177;-91
2022/10/13 11:20:58;;;;;;;17.15;9.00;;;;;;;;;;6150994;23;20328;-91
2022/10/13 11:24:08;;;;;;;16.38;7.70;;;;;;;;;;6151204;23;20212;-87
2022/10/13 11:27:20;;;;;;;14.35;6.07;;;;;;;;;;6154033;23;20252;-89
2022/10/13 11:30:50;;;;;;;12.00;5.55;;;;;;;;;;6151864;23;20598;-89
2022/10/13 11:34:00;;;;;;;16.33;6.13;;;;;;;;;;6150866;23;20179;-88
2022/10/13 11:37:17;;;;;;;15.52;6.53;;;;;;;;;;6149939;23;20172;-88
2022/10/13 11:40:25;;;;;;;19.77;6.35;;;;;;;;;;6151066;23;20157;-88
2022/10/13 11:43:38;;;;;;;17.95;7.40;;;;;;;;;;6153982;23;20180;-92
2022/10/13 11:46:53;;;;;;;19.35;7.13;;;;;;;;;;6154186;23;20220;-90
2022/10/13 11:50:04;;;;;;;14.70;5.97;;;;;;;;;;6149941;23;20224;-90
2022/10/13 11:53:17;;;;;;;16.83;7.57;;;;;;;;;;6150037;23;20173;-88
2022/10/13 11:56:24;;;;;;;20.17;8.02;;;;;;;;;;6152909;23;20248;-89
2022/10/13 11:59:29;;;;;;;17.63;7.95;;;;;;;;;;6150194;23;20469;-90
2022/10/13 12:02:36;;;;;;;19.25;7.55;;;;;;;;;;6152775;23;20252;-90
2022/10/13 12:05:43;;;;;;;19.27;7.82;;;;;;;;;;6150372;23;20600;-91
2022/10/13 12:08:49;;;;;;;18.20;7.95;;;;;;;;;;6148426;23;20172;-89
2022/10/13 12:12:00;;;;;;;23.80;8.75;;;;;;;;;;6150701;23;20173;-91
2022/10/13 12:15:20;;;;;;;17.48;7.72;;;;;;;;;;6153143;23;20164;-90
2022/10/13 12:18:27;;;;;;;15.73;7.25;;;;;;;;;;6150900;23;20168;-91
2022/10/13 12:21:49;;;;;;;23.58;7.50;;;;;;;;;;6149767;23;20245;-90
2022/10/13 12:25:00;;;;;;;16.33;8.13;;;;;;;;;;6149632;23;20173;-90
2022/10/13 12:28:05;;;;;;;16.77;7.30;;;;;;;;;;6152363;23;20220;-88
2022/10/13 12:31:17;;;;;;;15.90;7.28;;;;;;;;;;6150120;23;20261;-89
2022/10/13 12:34:26;;;;;;;21.50;8.13;;;;;;;;;;6149104;23;20220;-90
2022/10/13 12:37:35;;;;;;;20.23;7.00;;;;;;;;;;6148607;23;20187;-90
2022/10/13 12:40:40;;;;;;;14.05;6.70;;;;;;;;;;6148327;23;20573;-91
2022/10/13 12:43:46;;;;;;;18.55;7.32;;;;;;;;;;6145822;23;20501;-91
2022/10/13 12:46:52;;;;;;;16.55;7.53;;;;;;;;;;6147792;23;20647;-89
2022/10/13 12:50:12;;;;;;;18.98;7.32;;;;;;;;;;6148683;23;20164;-90
2022/10/13 12:53:20;;;;;;;19.55;6.95;;;;;;;;;;6149453;23;20177;-91
2022/10/13 12:56:27;;;;;;;13.90;6.80;;;;;;;;;;6147234;23;20192;-90
2022/10/13 12:59:33;;;;;;;17.08;6.80;;;;;;;;;;6146547;23;20168;-89
2022/10/13 13:02:38;;;;;;;21.15;9.60;;;;;;;;;;6146468;23;20173;-90
2022/10/13 13:05:44;;;;;;;15.35;7.85;;;;;;;;;;6147592;23;20169;-90
2022/10/13 13:09:07;;;;;;;18.55;7.35;;;;;;;;;;6147899;23;20600;-90
2022/10/13 13:12:27;;;;;;;15.80;7.47;;;;;;;;;;6146564;23;20180;-90
2022/10/13 13:15:34;;;;;;;21.25;7.18;;;;;;;;;;6148451;23;20602;-92
2022/10/13 13:18:41;;;;;;;20.25;7.70;;;;;;;;;;6147135;23;20176;-90
2022/10/13 13:21:46;;;;;;;17.15;7.18;;;;;;;;;;6146688;23;20172;-90
2022/10/13 13:24:58;;;;;;;19.45;7.05;;;;;;;;;;6145725;23;20169;-89
2022/10/13 13:28:10;;;;;;;26.15;7.95;;;;;;;;;;6149782;23;20203;-90
2022/10/13 13:31:16;;;;;;;16.48;7.40;;;;;;;;;;6148726;23;20273;-89
2022/10/13 13:34:21;;;;;;;24.33;8.90;;;;;;;;;;6153477;23;20181;-89
2022/10/13 13:37:29;;;;;;;19.55;7.88;;;;;;;;;;6154721;23;20180;-90
2022/10/13 13:40:34;;;;;;;16.17;7.60;;;;;;;;;;6151378;23;20240;-90
2022/10/13 13:43:42;;;;;;;17.50;8.23;;;;;;;;;;6151913;23;20252;-90
2022/10/13 13:46:49;;;;;;;18.52;8.18;;;;;;;;;;6151888;23;20195;-89
2022/10/13 13:49:55;;;;;;;19.60;7.95;;;;;;;;;;6149524;23;20208;-88
2022/10/13 13:53:01;;;;;;;19.45;7.53;;;;;;;;;;6150224;23;20284;-90
2022/10/13 13:56:07;;;;;;;19.10;8.23;;;;;;;;;;6154306;23;20196;-90
2022/10/13 13:59:13;;;;;;;23.70;8.15;;;;;;;;;;6151279;23;20167;-92
2022/10/13 14:02:20;;;;;;;20.67;9.57;;;;;;;;;;6150810;23;20188;-88
2022/10/13 14:05:25;;;;;;;27.60;12.00;;;;;;;;;;6153410;23;20237;-92
2022/10/13 14:08:31;;;;;;;21.08;8.18;;;;;;;;;;6148944;23;20192;-91
2022/10/13 14:11:37;;;;;;;24.30;8.65;;;;;;;;;;6153759;23;20177;-91
2022/10/13 14:14:43;;;;;;;19.50;8.10;;;;;;;;;;6152473;23;20173;-88
2022/10/13 14:17:48;;;;;;;19.90;9.18;;;;;;;;;;6152867;23;20226;-90
2022/10/13 14:20:54;;;;;;;18.20;9.25;;;;;;;;;;6153572;23;20169;-90
2022/10/13 14:24:24;;;;;;;18.70;9.25;;;;;;;;;;6150253;23;20222;-91
2022/10/13 14:27:29;;;;;;;20.15;8.70;;;;;;;;;;6148316;23;20200;-91
2022/10/13 14:30:41;;;;;;;16.08;8.38;;;;;;;;;;6151363;23;20168;-90
2022/10/13 14:33:46;;;;;;;20.02;9.48;;;;;;;;;;6149916;23;20255;-91
2022/10/13 14:36:51;;;;;;;94.00;31.98;;;;;;;;;;6151593;23;20164;-89
2022/10/13 14:39:59;;;;;;;35.13;14.20;;;;;;;;;;6150253;23;20188;-89
2022/10/13 14:43:03;;;;;;;75.13;25.20;;;;;;;;;;6150911;23;20177;-90
2022/10/13 14:46:10;;;;;;;347.60;99.30;;;;;;;;;;6148560;23;20176;-89
2022/10/13 14:49:16;;;;;;;623.72;232.55;;;;;;;;;;6152010;23;20204;-90
2022/10/13 14:52:23;;;;;;;42.05;17.08;;;;;;;;;;6150065;23;20184;-91
2022/10/13 14:55:28;;;;;;;20.05;9.70;;;;;;;;;;6149941;23;20496;-88
2022/10/13 14:58:33;;;;;;;20.98;9.20;;;;;;;;;;6150699;23;20296;-90
2022/10/13 15:01:41;;;;;;;19.02;8.38;;;;;;;;;;6151312;23;20196;-89
2022/10/13 15:04:45;;;;;;;18.75;8.40;;;;;;;;;;6151401;23;20169;-88
2022/10/13 15:07:50;;;;;;;17.67;8.13;;;;;;;;;;6149596;23;20525;-89
2022/10/13 15:11:00;;;;;;;23.00;7.57;;;;;;;;;;6148870;23;20624;-89
2022/10/13 15:14:06;;;;;;;19.48;7.72;;;;;;;;;;6149413;23;20658;-89
2022/10/13 15:17:12;;;;;;;25.30;10.48;;;;;;;;;;6149585;23;20173;-91
2022/10/13 15:20:18;;;;;;;20.42;7.97;;;;;;;;;;6149154;23;20632;-91
2022/10/13 15:23:23;;;;;;;19.58;7.95;;;;;;;;;;6150290;23;20288;-89
2022/10/13 15:26:35;;;;;;;17.65;8.10;;;;;;;;;;6148727;23;20621;-89
2022/10/13 15:29:40;;;;;;;25.15;8.68;;;;;;;;;;6149540;23;20148;-90
2022/10/13 15:32:51;;;;;;;16.70;8.02;;;;;;;;;;6150094;23;20172;-90
2022/10/13 15:35:56;;;;;;;24.58;8.43;;;;;;;;;;6149768;23;20575;-89
2022/10/13 15:39:01;;;;;;;18.65;8.40;;;;;;;;;;6151505;23;20229;-89
2022/10/13 15:42:07;;;;;;;19.10;8.98;;;;;;;;;;6149112;23;20172;-89
2022/10/13 15:45:12;;;;;;;19.67;8.80;;;;;;;;;;6149212;23;20160;-89
2022/10/13 15:48:19;;;;;;;24.10;9.25;;;;;;;;;;6149515;23;20196;-89
2022/10/13 15:51:25;;;;;;;19.48;9.98;;;;;;;;;;6150199;23;20180;-88
2022/10/13 15:54:30;;;;;;;17.58;9.27;;;;;;;;;;6147781;23;20217;-89
2022/10/13 15:57:35;;;;;;;21.95;9.70;;;;;;;;;;6153235;23;20172;-89
2022/10/13 16:00:40;;;;;;;24.52;10.48;;;;;;;;;;6151070;23;20192;-90
2022/10/13 16:03:47;;;;;;;24.85;11.70;;;;;;;;;;6149907;23;20174;-89
2022/10/13 16:06:52;;;;;;;23.00;13.13;;;;;;;;;;6151218;23;20220;-90
2022/10/13 16:09:57;;;;;;;20.63;11.38;;;;;;;;;;6149501;23;20172;-89
2022/10/13 16:13:02;;;;;;;27.80;11.52;;;;;;;;;;6148826;23;20195;-88
2022/10/13 16:16:08;;;;;;;25.73;9.82;;;;;;;;;;6148709;23;20163;-88
2022/10/13 16:19:16;;;;;;;23.42;9.45;;;;;;;;;;6149055;23;20167;-89
2022/10/13 16:22:21;;;;;;;18.27;9.93;;;;;;;;;;6149402;23;20172;-89
2022/10/13 16:25:28;;;;;;;22.73;9.68;;;;;;;;;;6153037;23;20215;-89
2022/10/13 16:28:34;;;;;;;21.27;9.60;;;;;;;;;;6152396;23;20253;-91
2022/10/13 16:31:39;;;;;;;22.70;10.82;;;;;;;;;;6149713;23;20189;-89
2022/10/13 16:34:47;;;;;;;26.80;10.57;;;;;;;;;;6149854;23;20238;-90
2022/10/13 16:37:56;;;;;;;29.77;10.57;;;;;;;;;;6150864;23;20207;-91
2022/10/13 16:41:03;;;;;;;23.05;10.13;;;;;;;;;;6150192;23;20632;-89
2022/10/13 16:44:08;;;;;;;28.33;10.45;;;;;;;;;;6153052;23;20164;-90
2022/10/13 16:47:13;;;;;;;25.52;11.10;;;;;;;;;;6151254;23;20156;-90
2022/10/13 16:50:24;;;;;;;29.48;10.63;;;;;;;;;;6151348;23;20164;-90
2022/10/13 16:53:29;;;;;;;29.70;11.23;;;;;;;;;;6152753;23;20212;-89
2022/10/13 16:56:34;;;;;;;23.60;10.23;;;;;;;;;;6151396;23;20176;-90
2022/10/13 16:59:39;;;;;;;26.00;11.13;;;;;;;;;;6152294;23;20266;-89
2022/10/13 17:02:45;;;;;;;20.55;10.65;;;;;;;;;;6150383;23;20169;-90
2022/10/13 17:05:53;;;;;;;31.17;11.80;;;;;;;;;;6152867;23;20188;-91
2022/10/13 17:09:01;;;;;;;20.85;10.32;;;;;;;;;;6149102;23;20199;-90
2022/10/13 17:12:07;;;;;;;23.92;11.07;;;;;;;;;;6151771;23;20791;-91
2022/10/13 17:15:12;;;;;;;25.05;11.50;;;;;;;;;;6150878;23;20167;-91
2022/10/13 17:18:17;;;;;;;27.10;12.18;;;;;;;;;;6151060;23;20167;-90
2022/10/13 17:21:24;;;;;;;28.50;12.80;;;;;;;;;;6152166;23;20185;-90
2022/10/13 17:24:41;;;;;;;32.42;13.50;;;;;;;;;;6152298;23;20260;-90
2022/10/13 17:27:46;;;;;;;34.47;13.38;;;;;;;;;;6149654;23;20429;-90
2022/10/13 17:30:58;;;;;;;23.98;12.32;;;;;;;;;;6154166;23;20176;-90
2022/10/13 17:34:04;;;;;;;28.30;12.65;;;;;;;;;;6151866;23;20173;-91
2022/10/13 17:37:11;;;;;;;29.45;14.02;;;;;;;;;;6149121;23;20161;-90
2022/10/13 17:40:16;;;;;;;29.15;13.35;;;;;;;;;;6148651;23;20167;-90
2022/10/13 17:43:21;;;;;;;29.02;14.13;;;;;;;;;;6149439;23;20172;-91
2022/10/13 17:46:27;;;;;;;28.38;14.10;;;;;;;;;;6149191;23;20169;-90
2022/10/13 17:49:32;;;;;;;29.02;13.52;;;;;;;;;;6151120;23;20196;-90
2022/10/13 17:52:39;;;;;;;37.10;18.10;;;;;;;;;;6153733;23;20156;-90
2022/10/13 17:55:44;;;;;;;29.50;15.55;;;;;;;;;;6155393;23;20234;-90
2022/10/13 17:58:52;;;;;;;26.60;13.55;;;;;;;;;;6154340;23;20226;-90
2022/10/13 18:01:57;;;;;;;30.85;14.35;;;;;;;;;;6154486;23;20196;-91
2022/10/13 18:05:03;;;;;;;34.10;14.40;;;;;;;;;;6154311;23;20168;-90
2022/10/13 18:08:10;;;;;;;44.22;16.42;;;;;;;;;;6153080;23;20648;-89
2022/10/13 18:11:17;;;;;;;38.33;15.45;;;;;;;;;;6153645;23;20645;-91
2022/10/13 18:14:24;;;;;;;30.48;14.15;;;;;;;;;;6151962;23;20604;-91
2022/10/13 18:17:30;;;;;;;33.03;15.30;;;;;;;;;;6154804;23;20149;-90
2022/10/13 18:20:37;;;;;;;33.80;16.20;;;;;;;;;;6152896;23;20176;-90
2022/10/13 18:23:44;;;;;;;34.20;14.80;;;;;;;;;;6152866;23;20172;-89
2022/10/13 18:26:49;;;;;;;35.72;15.68;;;;;;;;;;6152304;23;20233;-90
2022/10/13 18:29:54;;;;;;;33.42;16.48;;;;;;;;;;6151099;23;20272;-89
2022/10/13 18:33:01;;;;;;;33.25;15.65;;;;;;;;;;6136097;23;20157;-89
2022/10/13 18:36:12;;;;;;;39.72;17.73;;;;;;;;;;6153675;23;20217;-89
2022/10/13 18:39:26;;;;;;;58.28;21.50;;;;;;;;;;6152853;23;20168;-89
2022/10/13 18:42:31;;;;;;;52.95;22.42;;;;;;;;;;6154917;23;20173;-90
2022/10/13 18:45:37;;;;;;;43.13;16.67;;;;;;;;;;6152196;23;20168;-90
2022/10/13 18:48:42;;;;;;;149.13;47.85;;;;;;;;;;6154512;23;20180;-91
2022/10/13 18:51:47;;;;;;;46.75;17.83;;;;;;;;;;6154352;23;20661;-90
2022/10/13 18:54:54;;;;;;;38.80;17.00;;;;;;;;;;6153522;23;20172;-89
2022/10/13 18:57:59;;;;;;;37.53;15.18;;;;;;;;;;6154011;23;20157;-89
2022/10/13 19:01:06;;;;;;;37.25;15.93;;;;;;;;;;6153298;23;20257;-90
2022/10/13 19:04:13;;;;;;;39.33;16.88;;;;;;;;;;6153950;23;20157;-89
2022/10/13 19:07:18;;;;;;;39.63;16.20;;;;;;;;;;6154240;23;20212;-90
2022/10/13 19:10:25;;;;;;;33.30;15.35;;;;;;;;;;6152066;23;20200;-90
2022/10/13 19:13:31;;;;;;;29.85;14.25;;;;;;;;;;6154129;23;20153;-90
2022/10/13 19:16:38;;;;;;;29.58;12.95;;;;;;;;;;6155306;23;20196;-88
2022/10/13 19:19:45;;;;;;;41.70;17.67;;;;;;;;;;6151962;23;20172;-91
2022/10/13 19:22:49;;;;;;;34.75;13.57;;;;;;;;;;6155691;23;20177;-88
2022/10/13 19:25:57;;;;;;;30.73;12.70;;;;;;;;;;6154484;23;20240;-91
2022/10/13 19:29:03;;;;;;;32.65;14.75;;;;;;;;;;6154542;23;20240;-90
2022/10/13 19:32:08;;;;;;;36.22;13.30;;;;;;;;;;6153490;23;20168;-88
2022/10/13 19:35:14;;;;;;;32.65;13.38;;;;;;;;;;6152900;23;20168;-90
2022/10/13 19:38:19;;;;;;;36.97;13.55;;;;;;;;;;6155666;23;20157;-89
2022/10/13 19:41:28;;;;;;;35.78;13.52;;;;;;;;;;6155570;23;20180;-90
2022/10/13 19:44:33;;;;;;;29.83;12.60;;;;;;;;;;6155716;23;20188;-89
2022/10/13 19:50:58;;;;;;;25.00;12.90;;;;;;;;;;6154937;23;20168;-89
2022/10/13 19:54:04;;;;;;;30.63;15.35;;;;;;;;;;6153554;23;20156;-90
2022/10/13 19:57:12;;;;;;;26.27;12.50;;;;;;;;;;6156733;23;20173;-90
2022/10/13 20:00:19;;;;;;;32.22;12.50;;;;;;;;;;6155416;23;20168;-90
2022/10/13 20:03:24;;;;;;;27.95;12.52;;;;;;;;;;6156326;23;20164;-90
2022/10/13 20:06:30;;;;;;;29.23;13.18;;;;;;;;;;6155008;23;20216;-89
2022/10/13 20:09:35;;;;;;;30.50;13.63;;;;;;;;;;6155221;23;20212;-90
2022/10/13 20:12:42;;;;;;;31.23;12.60;;;;;;;;;;6154694;23;20165;-91
2022/10/13 20:15:47;;;;;;;21.45;11.80;;;;;;;;;;6157152;23;20255;-90
2022/10/13 20:18:54;;;;;;;27.83;12.85;;;;;;;;;;6155220;23;20244;-91
2022/10/13 20:22:00;;;;;;;38.95;12.65;;;;;;;;;;6155612;23;20153;-90
2022/10/13 20:29:28;;;;;;;37.30;12.57;;;;;;;;;;6172042;23;20179;-90
2022/10/13 20:32:33;;;;;;;32.40;13.60;;;;;;;;;;6154617;23;20476;-91
2022/10/13 20:35:38;;;;;;;35.72;14.15;;;;;;;;;;6154835;23;20213;-89
2022/10/13 20:38:43;;;;;;;27.15;12.80;;;;;;;;;;6154080;23;20175;-89
2022/10/13 20:41:49;;;;;;;33.58;13.40;;;;;;;;;;6155178;23;20156;-89
2022/10/13 20:44:57;;;;;;;33.88;16.67;;;;;;;;;;6154115;23;20164;-89
2022/10/13 20:48:02;;;;;;;32.15;14.35;;;;;;;;;;6153874;23;20172;-90
2022/10/13 20:51:11;;;;;;;23.55;12.65;;;;;;;;;;6152418;23;20501;-90
2022/10/13 20:54:17;;;;;;;27.17;12.27;;;;;;;;;;6154906;23;20153;-91
2022/10/13 20:57:22;;;;;;;29.88;13.07;;;;;;;;;;6153169;23;20181;-91
2022/10/13 21:00:32;;;;;;;35.35;14.23;;;;;;;;;;6152862;23;20175;-92
2022/10/13 21:03:39;;;;;;;34.15;13.48;;;;;;;;;;6153058;23;20209;-91
2022/10/13 21:06:46;;;;;;;27.42;13.65;;;;;;;;;;6151098;23;20248;-91
2022/10/13 21:09:51;;;;;;;27.10;12.90;;;;;;;;;;6154384;23;20180;-91
2022/10/13 21:12:56;;;;;;;27.98;12.75;;;;;;;;;;6151431;23;20257;-90
2022/10/13 21:16:08;;;;;;;30.55;13.63;;;;;;;;;;6153558;23;20250;-91
2022/10/13 21:19:14;;;;;;;28.88;13.98;;;;;;;;;;6152919;23;20173;-89
2022/10/13 21:22:18;;;;;;;46.75;17.33;;;;;;;;;;6153108;23;20160;-89
2022/10/13 21:25:24;;;;;;;33.58;15.45;;;;;;;;;;6136156;23;20168;-90
2022/10/13 21:28:32;;;;;;;39.55;14.20;;;;;;;;;;6151912;23;20164;-90
2022/10/13 21:31:39;;;;;;;35.00;14.85;;;;;;;;;;6152382;23;20250;-91
2022/10/13 21:34:44;;;;;;;33.75;14.00;;;;;;;;;;6153351;23;20189;-89
2022/10/13 21:37:49;;;;;;;45.42;13.32;;;;;;;;;;6152197;23;20165;-90
2022/10/13 21:40:54;;;;;;;26.95;13.50;;;;;;;;;;6152996;23;20243;-89
2022/10/13 21:44:01;;;;;;;28.48;13.82;;;;;;;;;;6152100;23;20165;-91
2022/10/13 21:47:10;;;;;;;31.35;13.27;;;;;;;;;;6152882;23;20177;-89
2022/10/13 21:50:18;;;;;;;28.00;13.10;;;;;;;;;;6152418;23;20201;-89
2022/10/13 21:53:24;;;;;;;27.52;12.55;;;;;;;;;;6151090;23;20668;-92
2022/10/13 21:56:30;;;;;;;27.33;12.57;;;;;;;;;;6154105;23;20164;-90
2022/10/13 21:59:37;;;;;;;24.10;12.73;;;;;;;;;;6155945;23;20173;-90
2022/10/13 22:03:00;;;;;;;35.05;13.18;;;;;;;;;;6155201;23;20173;-89